createdAt,value
2022-11-16T00:00:00.368Z,95393.91
2022-11-16T00:02:34.263Z,95389.31
2022-11-16T00:05:02.332Z,95392.94
2022-11-16T00:07:30.508Z,95393.91
2022-11-16T00:09:58.600Z,95388.94
2022-11-16T00:12:26.519Z,95371.47
2022-11-16T00:14:54.510Z,95382.69
2022-11-16T00:17:22.497Z,95377.25
2022-11-16T00:19:51.905Z,95369.50
2022-11-16T00:22:19.907Z,95385.16
2022-11-16T00:24:48.200Z,95386.47
2022-11-16T00:27:16.131Z,95370.78
2022-11-16T00:29:44.115Z,95373.53
2022-11-16T00:32:12.407Z,95372.84
2022-11-16T00:34:40.763Z,95366.88
2022-11-16T00:37:10.235Z,95357.34
2022-11-16T00:39:38.326Z,95356.34
2022-11-16T00:42:06.477Z,95353.56
2022-11-16T00:44:34.522Z,95343.31
2022-11-16T00:47:02.698Z,95345.78
2022-11-16T00:49:30.716Z,95345.13
2022-11-16T00:51:59.063Z,95346.41
2022-11-16T00:54:28.645Z,95344.88
2022-11-16T00:56:57.011Z,95334.16
2022-11-16T00:59:25.470Z,95335.16
2022-11-16T01:01:57.466Z,95331.41
2022-11-16T01:04:25.585Z,95341.13
2022-11-16T01:06:54.003Z,95336.97
2022-11-16T01:09:25.411Z,95333.50
2022-11-16T01:12:09.895Z,95331.69
2022-11-16T01:14:40.298Z,95331.00
2022-11-16T01:17:08.300Z,95330.19
2022-11-16T01:19:37.629Z,95321.44
2022-11-16T01:22:06.095Z,95322.28
2022-11-16T01:24:34.366Z,95321.44
2022-11-16T01:27:03.764Z,95320.75
2022-11-16T01:29:35.130Z,95324.06
2022-11-16T01:32:03.342Z,95322.56
2022-11-16T01:34:32.715Z,95320.59
2022-11-16T01:37:06.839Z,95319.63
2022-11-16T01:39:38.993Z,95310.34
2022-11-16T01:42:17.944Z,95306.91
2022-11-16T01:44:59.478Z,95310.22
2022-11-16T01:47:27.910Z,95318.53
2022-11-16T01:50:04.019Z,95321.97
2022-11-16T01:52:37.847Z,95316.69
2022-11-16T01:55:07.183Z,95322.97
2022-11-16T01:57:49.877Z,95316.69
2022-11-16T02:00:19.138Z,95316.56
2022-11-16T02:03:00.758Z,95306.16
2022-11-16T02:06:12.665Z,95320.03
2022-11-16T02:09:13.806Z,95323.88
2022-11-16T02:13:01.413Z,95315.81
2022-11-16T02:15:45.249Z,95320.09
2022-11-16T02:18:31.444Z,95305.78
2022-11-16T02:21:18.930Z,95309.97
2022-11-16T02:24:13.631Z,95303.47
2022-11-16T02:27:04.618Z,95313.88
2022-11-16T02:29:38.665Z,95304.00
2022-11-16T02:32:13.345Z,95307.47
2022-11-16T02:34:45.982Z,95308.28
2022-11-16T02:37:18.086Z,95302.19
2022-11-16T02:39:49.244Z,95303.03
2022-11-16T02:42:21.649Z,95296.78
2022-11-16T02:44:55.725Z,95297.75
2022-11-16T02:47:28.427Z,95296.38
2022-11-16T02:50:01.527Z,95298.06
2022-11-16T02:52:29.991Z,95299.00
2022-11-16T02:54:58.212Z,95299.69
2022-11-16T02:57:45.392Z,95305.13
2022-11-16T03:00:22.060Z,95300.53
2022-11-16T03:03:00.604Z,95301.50
2022-11-16T03:05:34.018Z,95300.13
2022-11-16T03:08:17.705Z,95291.41
2022-11-16T03:11:07.153Z,95292.53
2022-11-16T03:13:37.346Z,95286.44
2022-11-16T03:16:12.311Z,95286.72
2022-11-16T03:18:41.685Z,95284.94
2022-11-16T03:21:18.702Z,95280.78
2022-11-16T03:23:47.873Z,95285.38
2022-11-16T03:26:19.791Z,95277.59
2022-11-16T03:28:53.426Z,95274.81
2022-11-16T03:31:29.119Z,95268.56
2022-11-16T03:33:59.696Z,95254.41
2022-11-16T03:36:32.218Z,95254.41
2022-11-16T03:39:04.246Z,95251.09
2022-11-16T03:41:38.636Z,95252.59
2022-11-16T03:44:08.886Z,95256.19
2022-11-16T03:46:38.508Z,95260.34
2022-11-16T03:49:07.291Z,95275.88
2022-11-16T03:51:37.797Z,95286.00
2022-11-16T03:54:06.419Z,95289.75
2022-11-16T03:56:35.910Z,95299.19
2022-11-16T03:59:05.662Z,95314.16
2022-11-16T04:01:33.663Z,95317.78
2022-11-16T04:04:03.176Z,95306.53
2022-11-16T04:06:49.081Z,95301.13
2022-11-16T04:09:46.249Z,95306.03
2022-11-16T04:12:31.808Z,95316.56
2022-11-16T04:15:17.150Z,95323.63
2022-11-16T04:18:02.577Z,95326.25
2022-11-16T04:20:49.563Z,95313.06
2022-11-16T04:23:31.697Z,95318.13
2022-11-16T04:26:01.128Z,95317.13
2022-11-16T04:28:30.650Z,95317.81
2022-11-16T04:31:22.864Z,95317.00
2022-11-16T04:34:16.227Z,95330.19
2022-11-16T04:37:07.836Z,95325.88
2022-11-16T04:39:36.469Z,95334.78
2022-11-16T04:42:15.367Z,95326.69
2022-11-16T04:45:02.916Z,95323.53
2022-11-16T04:47:37.312Z,95317.97
2022-11-16T04:50:07.005Z,95315.31
2022-11-16T04:52:36.701Z,95311.72
2022-11-16T04:55:07.136Z,95313.94
2022-11-16T04:57:35.130Z,95321.16
2022-11-16T05:00:05.904Z,95313.06
2022-11-16T05:02:36.107Z,95314.06
2022-11-16T05:05:04.472Z,95314.19
2022-11-16T05:07:32.828Z,95309.78
2022-11-16T05:10:09.453Z,95314.06
2022-11-16T05:12:37.506Z,95302.84
2022-11-16T05:15:08.722Z,95317.69
2022-11-16T05:17:36.959Z,95322.97
2022-11-16T05:20:28.268Z,95325.44
2022-11-16T05:23:01.587Z,95328.06
2022-11-16T05:25:36.948Z,95327.25
2022-11-16T05:28:08.187Z,95322.66
2022-11-16T05:30:40.663Z,95324.47
2022-11-16T05:33:08.782Z,95325.59
2022-11-16T05:35:40.983Z,95323.25
2022-11-16T05:38:09.195Z,95324.22
2022-11-16T05:40:43.862Z,95324.78
2022-11-16T05:43:12.027Z,95327.59
2022-11-16T05:45:48.577Z,95323.59
2022-11-16T05:48:17.133Z,95329.53
2022-11-16T05:50:45.544Z,95320.94
2022-11-16T05:53:20.663Z,95318.44
2022-11-16T05:55:51.350Z,95320.94
2022-11-16T05:58:20.555Z,95318.63
2022-11-16T06:00:51.050Z,95316.25
2022-11-16T06:03:20.607Z,95320.25
2022-11-16T06:05:48.630Z,95321.63
2022-11-16T06:08:18.320Z,95327.44
2022-11-16T06:10:47.275Z,95330.22
2022-11-16T06:13:16.611Z,95330.22
2022-11-16T06:15:50.199Z,95337.03
2022-11-16T06:18:19.073Z,95345.63
2022-11-16T06:20:48.827Z,95349.22
2022-11-16T06:23:18.515Z,95347.41
2022-11-16T06:25:47.180Z,95359.75
2022-11-16T06:28:16.581Z,95368.34
2022-11-16T06:30:45.081Z,95368.34
2022-11-16T06:33:13.233Z,95365.84
2022-11-16T06:35:41.655Z,95357.00
2022-11-16T06:38:11.779Z,95365.59
2022-11-16T06:40:39.802Z,95367.22
2022-11-16T06:43:07.922Z,95368.34
2022-11-16T06:45:37.635Z,95369.03
2022-11-16T06:48:06.447Z,95374.63
2022-11-16T06:50:34.551Z,95379.88
2022-11-16T06:53:02.599Z,95383.19
2022-11-16T06:55:31.011Z,95376.41
2022-11-16T06:57:59.079Z,95387.78
2022-11-16T07:00:27.960Z,95386.94
2022-11-16T07:02:58.722Z,95391.38
2022-11-16T07:05:26.719Z,95397.34
2022-11-16T07:07:56.502Z,95398.03
2022-11-16T07:10:26.530Z,95397.22
2022-11-16T07:12:55.578Z,95393.59
2022-11-16T07:15:24.752Z,95395.25
2022-11-16T07:17:52.859Z,95404.69
2022-11-16T07:20:23.111Z,95413.44
2022-11-16T07:22:51.929Z,95413.44
2022-11-16T07:25:19.919Z,95421.19
2022-11-16T07:27:48.690Z,95418.41
2022-11-16T07:30:17.260Z,95417.59
2022-11-16T07:33:00.739Z,95418.13
2022-11-16T07:36:03.452Z,95420.47
2022-11-16T07:38:33.300Z,95424.06
2022-11-16T07:41:02.265Z,95429.09
2022-11-16T07:43:35.132Z,95425.47
2022-11-16T07:49:03.994Z,95438.22
2022-11-16T07:51:55.840Z,95430.16
2022-11-16T07:54:46.711Z,95436.09
2022-11-16T07:57:16.308Z,95435.00
2022-11-16T07:59:44.985Z,95436.22
2022-11-16T08:02:13.469Z,95443.00
2022-11-16T08:04:42.891Z,95446.72
2022-11-16T08:07:12.400Z,95442.84
2022-11-16T08:09:50.582Z,95439.91
2022-11-16T08:12:18.921Z,95437.81
2022-11-16T08:14:48.166Z,95427.38
2022-11-16T08:17:16.374Z,95433.50
2022-11-16T08:19:45.178Z,95436.00
2022-11-16T08:22:17.619Z,95436.81
2022-11-16T08:24:47.313Z,95428.06
2022-11-16T08:27:16.989Z,95437.50
2022-11-16T08:29:47.973Z,95426.13
2022-11-16T08:32:16.532Z,95432.09
2022-11-16T08:34:45.232Z,95437.19
2022-11-16T08:37:14.460Z,95437.19
2022-11-16T08:39:48.209Z,95438.34
2022-11-16T08:42:16.343Z,95446.41
2022-11-16T08:44:48.127Z,95439.47
2022-11-16T08:47:19.505Z,95441.41
2022-11-16T08:49:56.434Z,95444.22
2022-11-16T08:52:26.781Z,95442.22
2022-11-16T08:54:57.969Z,95443.91
2022-11-16T08:57:26.457Z,95445.56
2022-11-16T08:59:59.188Z,95445.28
2022-11-16T09:02:27.637Z,95450.41
2022-11-16T09:04:55.604Z,95450.41
2022-11-16T09:07:23.781Z,95447.25
2022-11-16T09:09:51.765Z,95447.50
2022-11-16T09:12:21.068Z,95441.09
2022-11-16T09:14:49.093Z,95440.09
2022-11-16T09:17:22.787Z,95438.97
2022-11-16T09:19:51.159Z,95442.44
2022-11-16T09:22:19.289Z,95444.25
2022-11-16T09:24:47.498Z,95440.63
2022-11-16T09:27:16.476Z,95447.72
2022-11-16T09:29:45.855Z,95441.59
2022-11-16T09:32:13.857Z,95439.78
2022-11-16T09:34:41.975Z,95452.72
2022-11-16T09:37:10.675Z,95447.25
2022-11-16T09:39:38.731Z,95453.53
2022-11-16T09:42:19.761Z,95447.44
2022-11-16T09:45:05.607Z,95456.69
2022-11-16T09:47:45.779Z,95460.72
2022-11-16T09:50:26.603Z,95465.41
2022-11-16T09:52:58.983Z,95463.84
2022-11-16T09:55:33.286Z,95465.34
2022-11-16T09:58:04.286Z,95455.47
2022-11-16T10:00:36.110Z,95456.00
2022-11-16T10:03:08.025Z,95457.22
2022-11-16T10:05:41.874Z,95453.00
2022-11-16T10:08:16.203Z,95455.03
2022-11-16T10:10:52.749Z,95460.28
2022-11-16T10:13:35.821Z,95456.34
2022-11-16T10:16:14.973Z,95450.81
2022-11-16T10:18:55.100Z,95449.97
2022-11-16T10:21:37.895Z,95449.28
2022-11-16T10:24:34.234Z,95439.84
2022-11-16T10:27:22.005Z,95447.66
2022-11-16T10:29:58.437Z,95436.25
2022-11-16T10:32:32.216Z,95439.59
2022-11-16T10:35:05.317Z,95437.44
2022-11-16T10:37:36.945Z,95421.19
2022-11-16T10:40:18.665Z,95417.94
2022-11-16T10:42:54.862Z,95414.97
2022-11-16T10:45:26.498Z,95417.53
2022-11-16T10:48:02.628Z,95415.94
2022-11-16T10:50:36.221Z,95403.25
2022-11-16T10:53:04.471Z,95412.84
2022-11-16T10:55:32.502Z,95402.81
2022-11-16T10:58:01.963Z,95398.56
2022-11-16T11:00:44.134Z,95387.66
2022-11-16T11:03:14.188Z,95393.16
2022-11-16T11:05:54.510Z,95402.13
2022-11-16T11:08:27.842Z,95396.72
2022-11-16T11:11:01.783Z,95397.91
2022-11-16T11:13:30.159Z,95386.50
2022-11-16T11:16:17.144Z,95386.22
2022-11-16T11:18:46.605Z,95381.09
2022-11-16T11:21:19.777Z,95384.94
2022-11-16T11:23:50.816Z,95384.59
2022-11-16T11:26:36.513Z,95377.34
2022-11-16T11:29:18.147Z,95373.69
2022-11-16T11:31:50.239Z,95386.09
2022-11-16T11:34:22.808Z,95386.22
2022-11-16T11:36:55.073Z,95382.75
2022-11-16T11:39:34.370Z,95373.34
2022-11-16T11:42:05.851Z,95385.28
2022-11-16T11:44:44.713Z,95392.41
2022-11-16T11:47:57.439Z,95389.22
2022-11-16T11:50:39.950Z,95394.38
2022-11-16T11:53:15.424Z,95384.59
2022-11-16T11:55:43.641Z,95393.38
2022-11-16T11:58:17.632Z,95396.53
2022-11-16T12:00:57.273Z,95391.06
2022-11-16T12:03:54.979Z,95376.75
2022-11-16T12:06:32.483Z,95385.97
2022-11-16T12:09:30.616Z,95378.03
2022-11-16T12:12:15.674Z,95379.88
2022-11-16T12:15:00.785Z,95380.34
2022-11-16T12:17:36.211Z,95367.09
2022-11-16T12:20:22.974Z,95378.69
2022-11-16T12:23:05.707Z,95370.91
2022-11-16T12:25:42.684Z,95370.22
2022-11-16T12:29:25.187Z,95371.38
2022-11-16T12:32:12.501Z,95367.09
2022-11-16T12:34:53.477Z,95368.25
2022-11-16T12:37:28.985Z,95368.38
2022-11-16T12:40:19.402Z,95368.72
2022-11-16T12:42:55.462Z,95355.50
2022-11-16T12:45:38.764Z,95357.19
2022-11-16T12:48:22.083Z,95356.50
2022-11-16T12:50:57.876Z,95357.19
2022-11-16T12:53:55.103Z,95348.38
2022-11-16T12:56:34.427Z,95353.53
2022-11-16T12:59:18.785Z,95349.53
2022-11-16T13:02:00.279Z,95355.66
2022-11-16T13:04:34.496Z,95348.56
2022-11-16T13:07:11.413Z,95346.91
2022-11-16T13:09:44.526Z,95337.47
2022-11-16T13:12:17.254Z,95342.25
2022-11-16T13:14:48.244Z,95335.63
2022-11-16T13:17:21.933Z,95342.72
2022-11-16T13:20:18.846Z,95331.28
2022-11-16T13:22:55.813Z,95336.75
2022-11-16T13:25:30.251Z,95340.22
2022-11-16T13:28:06.147Z,95339.22
2022-11-16T13:30:44.287Z,95327.16
2022-11-16T13:33:28.866Z,95337.59
2022-11-16T13:35:56.934Z,95328.00
2022-11-16T13:38:53.212Z,95338.25
2022-11-16T13:41:28.792Z,95336.13
2022-11-16T13:43:58.906Z,95325.72
2022-11-16T13:46:55.431Z,95330.00
2022-11-16T13:49:28.398Z,95322.72
2022-11-16T13:52:11.319Z,95324.38
2022-11-16T13:54:50.545Z,95321.25
2022-11-16T13:57:25.710Z,95313.84
2022-11-16T14:00:10.149Z,95302.09
2022-11-16T14:02:39.669Z,95313.84
2022-11-16T14:05:15.911Z,95306.25
2022-11-16T14:07:47.110Z,95303.09
2022-11-16T14:11:02.311Z,95304.25
2022-11-16T14:13:39.411Z,95308.88
2022-11-16T14:16:47.071Z,95298.28
2022-11-16T14:19:56.027Z,95296.94
2022-11-16T14:22:51.289Z,95296.28
2022-11-16T14:25:33.510Z,95292.00
2022-11-16T14:28:14.379Z,95284.88
2022-11-16T14:30:53.814Z,95278.09
2022-11-16T14:33:32.460Z,95290.63
2022-11-16T14:36:03.480Z,95275.09
2022-11-16T14:38:34.099Z,95273.44
2022-11-16T14:41:05.187Z,95264.00
2022-11-16T14:43:40.147Z,95264.00
2022-11-16T14:46:11.024Z,95264.81
2022-11-16T14:48:45.221Z,95263.47
2022-11-16T14:51:18.506Z,95271.59
2022-11-16T14:53:50.033Z,95266.63
2022-11-16T14:56:19.876Z,95264.47
2022-11-16T14:58:53.095Z,95272.88
2022-11-16T15:01:23.721Z,95269.69
2022-11-16T15:03:56.148Z,95271.53
2022-11-16T15:06:27.269Z,95270.84
2022-11-16T15:09:00.221Z,95275.78
2022-11-16T15:11:44.957Z,95272.78
2022-11-16T15:14:19.401Z,95278.69
2022-11-16T15:16:51.587Z,95276.53
2022-11-16T15:19:19.912Z,95270.41
2022-11-16T15:21:54.303Z,95280.16
2022-11-16T15:24:31.976Z,95282.13
2022-11-16T15:27:11.598Z,95272.84
2022-11-16T15:29:39.984Z,95267.88
2022-11-16T15:32:14.119Z,95267.16
2022-11-16T15:34:42.055Z,95255.41
2022-11-16T15:37:15.187Z,95254.19
2022-11-16T15:39:44.223Z,95242.59
2022-11-16T15:42:16.606Z,95232.97
2022-11-16T15:44:45.209Z,95230.31
2022-11-16T15:47:14.871Z,95239.84
2022-11-16T15:49:44.696Z,95258.97
2022-11-16T15:52:14.002Z,95260.66
2022-11-16T15:54:59.294Z,95260.66
2022-11-16T15:57:27.175Z,95252.38
2022-11-16T15:59:57.580Z,95237.66
2022-11-16T16:02:28.507Z,95236.63
2022-11-16T16:04:56.514Z,95229.31
2022-11-16T16:07:40.019Z,95229.75
2022-11-16T16:10:24.599Z,95228.88
2022-11-16T16:12:54.341Z,95230.31
2022-11-16T16:15:25.523Z,95235.91
2022-11-16T16:17:54.912Z,95236.97
2022-11-16T16:20:25.497Z,95233.78
2022-11-16T16:22:55.358Z,95251.19
2022-11-16T16:25:28.637Z,95237.63
2022-11-16T16:27:56.701Z,95234.63
2022-11-16T16:30:24.690Z,95229.09
2022-11-16T16:32:52.968Z,95233.00
2022-11-16T16:35:22.968Z,95235.81
2022-11-16T16:37:52.407Z,95245.31
2022-11-16T16:40:21.705Z,95247.31
2022-11-16T16:42:50.109Z,95247.47
2022-11-16T16:45:20.645Z,95232.53
2022-11-16T16:47:50.348Z,95228.63
2022-11-16T16:50:18.579Z,95229.91
2022-11-16T16:52:46.659Z,95228.53
2022-11-16T16:55:14.893Z,95223.25
2022-11-16T16:57:44.215Z,95222.97
2022-11-16T17:00:13.113Z,95223.13
2022-11-16T17:02:41.056Z,95226.19
2022-11-16T17:05:09.859Z,95213.75
2022-11-16T17:07:37.964Z,95213.06
2022-11-16T17:10:06.982Z,95214.50
2022-11-16T17:12:35.303Z,95214.09
2022-11-16T17:15:05.168Z,95214.38
2022-11-16T17:17:33.220Z,95213.31
2022-11-16T17:20:01.137Z,95203.34
2022-11-16T17:22:29.115Z,95208.78
2022-11-16T17:24:57.200Z,95198.78
2022-11-16T17:27:25.190Z,95198.41
2022-11-16T17:29:53.214Z,95188.00
2022-11-16T17:32:22.574Z,95201.16
2022-11-16T17:34:50.617Z,95197.88
2022-11-16T17:37:18.614Z,95197.47
2022-11-16T17:39:46.641Z,95195.56
2022-11-16T17:42:14.600Z,95189.75
2022-11-16T17:44:42.708Z,95199.88
2022-11-16T17:47:11.950Z,95195.56
2022-11-16T17:49:41.706Z,95189.75
2022-11-16T17:52:09.700Z,95190.84
2022-11-16T17:54:37.833Z,95188.81
2022-11-16T17:57:06.160Z,95192.56
2022-11-16T17:59:34.309Z,95192.16
2022-11-16T18:02:02.517Z,95185.13
2022-11-16T18:04:31.047Z,95185.81
2022-11-16T18:07:01.292Z,95183.44
2022-11-16T18:09:29.471Z,95185.56
2022-11-16T18:11:58.451Z,95187.19
2022-11-16T18:14:28.019Z,95186.38
2022-11-16T18:16:56.111Z,95173.22
2022-11-16T18:19:24.953Z,95167.41
2022-11-16T18:21:54.504Z,95173.09
2022-11-16T18:24:24.520Z,95161.03
2022-11-16T18:26:52.815Z,95159.38
2022-11-16T18:29:20.973Z,95149.84
2022-11-16T18:31:48.963Z,95140.25
2022-11-16T18:34:17.084Z,95136.69
2022-11-16T18:36:46.368Z,95130.31
2022-11-16T18:39:14.327Z,95122.59
2022-11-16T18:41:53.280Z,95114.41
2022-11-16T18:44:22.570Z,95107.66
2022-11-16T18:46:50.585Z,95103.53
2022-11-16T18:49:18.585Z,95098.09
2022-11-16T18:51:46.681Z,95097.72
2022-11-16T18:54:14.656Z,95084.97
2022-11-16T18:56:42.561Z,95094.41
2022-11-16T18:59:11.905Z,95105.22
2022-11-16T19:01:40.077Z,95100.09
2022-11-16T19:04:08.904Z,95091.38
2022-11-16T19:06:37.091Z,95103.00
2022-11-16T19:09:09.608Z,95095.84
2022-11-16T19:11:37.730Z,95103.31
2022-11-16T19:14:07.678Z,95103.19
2022-11-16T19:16:39.655Z,95105.28
2022-11-16T19:19:11.631Z,95100.56
2022-11-16T19:21:39.984Z,95101.81
2022-11-16T19:24:08.536Z,95089.09
2022-11-16T19:26:36.642Z,95098.75
2022-11-16T19:29:04.646Z,95111.63
2022-11-16T19:31:33.920Z,95111.50
2022-11-16T19:34:05.595Z,95116.88
2022-11-16T19:36:35.971Z,95117.84
2022-11-16T19:39:05.929Z,95113.84
2022-11-16T19:41:34.123Z,95125.28
2022-11-16T19:44:02.446Z,95126.56
2022-11-16T19:46:32.443Z,95130.00
2022-11-16T19:49:01.198Z,95129.88
2022-11-16T19:51:32.225Z,95130.53
2022-11-16T19:54:00.863Z,95127.25
2022-11-16T19:56:29.655Z,95122.13
2022-11-16T19:58:58.208Z,95137.06
2022-11-16T20:01:29.235Z,95136.06
2022-11-16T20:04:00.018Z,95139.78
2022-11-16T20:06:30.697Z,95129.56
2022-11-16T20:09:02.862Z,95115.34
2022-11-16T20:11:33.838Z,95104.97
2022-11-16T20:14:03.104Z,95088.69
2022-11-16T20:16:38.116Z,95085.59
2022-11-16T20:19:06.824Z,95080.63
2022-11-16T20:21:38.168Z,95074.00
2022-11-16T20:24:08.679Z,95079.53
2022-11-16T20:26:37.937Z,95080.50
2022-11-16T20:29:06.002Z,95078.13
2022-11-16T20:31:35.077Z,95075.22
2022-11-16T20:34:05.437Z,95067.22
2022-11-16T20:36:35.088Z,95080.63
2022-11-16T20:39:04.605Z,95088.78
2022-11-16T20:41:34.182Z,95079.34
2022-11-16T20:44:03.324Z,95072.88
2022-11-16T20:46:33.091Z,95078.81
2022-11-16T20:49:01.827Z,95078.69
2022-11-16T20:51:30.525Z,95072.88
2022-11-16T20:53:58.976Z,95061.13
2022-11-16T20:56:28.383Z,95062.25
2022-11-16T20:58:58.155Z,95052.69
2022-11-16T21:01:31.442Z,95034.47
2022-11-16T21:04:01.061Z,95029.94
2022-11-16T21:06:29.419Z,95037.78
2022-11-16T21:08:58.109Z,95031.16
2022-11-16T21:11:29.850Z,95039.84
2022-11-16T21:14:15.037Z,95035.28
2022-11-16T21:16:43.422Z,95041.88
2022-11-16T21:19:12.726Z,95038.44
2022-11-16T21:21:41.515Z,95036.78
2022-11-16T21:24:10.226Z,95047.41
2022-11-16T21:26:39.513Z,95043.28
2022-11-16T21:29:07.599Z,95039.13
2022-11-16T21:31:37.001Z,95043.81
2022-11-16T21:34:05.899Z,95036.09
2022-11-16T21:36:34.281Z,95036.91
2022-11-16T21:39:02.370Z,95031.91
2022-11-16T21:41:30.323Z,95032.63
2022-11-16T21:44:00.188Z,95029.16
2022-11-16T21:46:28.587Z,95025.59
2022-11-16T21:48:57.214Z,95025.81
2022-11-16T21:51:27.356Z,95022.22
2022-11-16T21:53:55.934Z,95036.31
2022-11-16T21:56:25.642Z,95035.25
2022-11-16T21:58:54.500Z,95043.22
2022-11-16T22:01:24.778Z,95045.16
2022-11-16T22:04:06.830Z,95033.69
2022-11-16T22:06:52.186Z,95035.25
2022-11-16T22:09:20.153Z,95027.22
2022-11-16T22:11:48.444Z,95022.97
2022-11-16T22:14:16.542Z,95018.41
2022-11-16T22:16:45.932Z,95021.88
2022-11-16T22:19:14.050Z,95020.06
2022-11-16T22:21:42.069Z,95018.69
2022-11-16T22:24:10.031Z,95015.66
2022-11-16T22:26:39.907Z,95011.78
2022-11-16T22:29:07.923Z,95008.75
2022-11-16T22:31:36.342Z,95002.69
2022-11-16T22:34:05.822Z,95006.00
2022-11-16T22:36:33.786Z,95007.66
2022-11-16T22:39:01.961Z,95004.09
2022-11-16T22:41:30.384Z,94999.09
2022-11-16T22:43:58.457Z,94987.78
2022-11-16T22:46:26.434Z,94992.59
2022-11-16T22:48:54.386Z,94980.47
2022-11-16T22:51:25.472Z,94983.63
2022-11-16T22:53:54.204Z,94980.88
2022-11-16T22:56:22.314Z,94975.47
2022-11-16T22:58:50.354Z,94971.19
2022-11-16T23:01:18.964Z,94985.44
2022-11-16T23:03:47.554Z,94983.09
2022-11-16T23:06:16.141Z,94981.16
2022-11-16T23:08:45.669Z,94986.41
2022-11-16T23:11:33.091Z,94984.44
2022-11-16T23:14:18.926Z,94978.09
2022-11-16T23:16:47.404Z,94973.69
2022-11-16T23:19:35.511Z,94981.41
2022-11-16T23:22:21.755Z,94968.44
2022-11-16T23:25:08.768Z,94978.09
2022-11-16T23:27:41.893Z,94973.41
2022-11-16T23:30:13.062Z,94971.19
2022-11-16T23:32:42.259Z,94969.69
2022-11-16T23:35:11.265Z,94962.22
2022-11-16T23:37:51.851Z,94951.16
2022-11-16T23:40:21.961Z,94938.75
2022-11-16T23:43:07.034Z,94933.19
2022-11-16T23:45:35.020Z,94930.84
2022-11-16T23:48:03.058Z,94915.63
2022-11-16T23:50:31.023Z,94899.47
2022-11-16T23:52:59.059Z,94890.22
2022-11-16T23:55:28.768Z,94884.41
2022-11-16T23:57:56.638Z,94876.69
